sensor_id;sensor_type;location;lat;lon;timestamp;pressure;altitude;pressure_sealevel;temperature;humidity
32324;BME280;25666;44.350;9.222;2022-08-01T00:01:35;101371.56;;;22.64;100.00
32324;BME280;25666;44.350;9.222;2022-08-01T00:04:00;101375.28;;;22.54;100.00
32324;BME280;25666;44.350;9.222;2022-08-01T00:06:26;101376.09;;;22.51;100.00
32324;BME280;25666;44.350;9.222;2022-08-01T00:08:52;101371.28;;;22.48;100.00
32324;BME280;25666;44.350;9.222;2022-08-01T00:11:18;101379.03;;;22.37;100.00
32324;BME280;25666;44.350;9.222;2022-08-01T00:13:43;101370.16;;;22.31;100.00
32324;BME280;25666;44.350;9.222;2022-08-01T00:16:09;101370.63;;;22.23;100.00
32324;BME280;25666;44.350;9.222;2022-08-01T00:18:34;101371.00;;;22.25;100.00
32324;BME280;25666;44.350;9.222;2022-08-01T00:21:02;101373.44;;;22.30;100.00
32324;BME280;25666;44.350;9.222;2022-08-01T00:23:28;101378.72;;;22.24;100.00
32324;BME280;25666;44.350;9.222;2022-08-01T00:25:53;101372.69;;;22.19;100.00
32324;BME280;25666;44.350;9.222;2022-08-01T00:28:19;101373.13;;;22.10;100.00
32324;BME280;25666;44.350;9.222;2022-08-01T00:30:44;101364.69;;;22.00;100.00
32324;BME280;25666;44.350;9.222;2022-08-01T00:33:10;101377.63;;;22.04;100.00
32324;BME280;25666;44.350;9.222;2022-08-01T00:35:35;101373.97;;;22.07;100.00
32324;BME280;25666;44.350;9.222;2022-08-01T00:38:01;101374.00;;;22.00;100.00
32324;BME280;25666;44.350;9.222;2022-08-01T00:40:26;101376.00;;;22.07;100.00
32324;BME280;25666;44.350;9.222;2022-08-01T00:42:52;101368.69;;;22.09;100.00
32324;BME280;25666;44.350;9.222;2022-08-01T00:45:17;101368.72;;;22.02;100.00
32324;BME280;25666;44.350;9.222;2022-08-01T00:47:43;101374.00;;;22.00;100.00
32324;BME280;25666;44.350;9.222;2022-08-01T00:50:10;101373.59;;;22.02;100.00
32324;BME280;25666;44.350;9.222;2022-08-01T00:52:35;101375.63;;;22.01;100.00
32324;BME280;25666;44.350;9.222;2022-08-01T00:55:02;101376.44;;;21.98;100.00
32324;BME280;25666;44.350;9.222;2022-08-01T00:57:28;101371.19;;;21.93;100.00
32324;BME280;25666;44.350;9.222;2022-08-01T00:59:54;101365.50;;;21.97;100.00
32324;BME280;25666;44.350;9.222;2022-08-01T01:02:20;101363.91;;;21.96;100.00
32324;BME280;25666;44.350;9.222;2022-08-01T01:04:46;101361.47;;;21.87;100.00
32324;BME280;25666;44.350;9.222;2022-08-01T01:10:13;101362.72;;;21.82;100.00
32324;BME280;25666;44.350;9.222;2022-08-01T01:13:04;101356.72;;;21.70;100.00
32324;BME280;25666;44.350;9.222;2022-08-01T01:15:39;101352.72;;;21.57;100.00
32324;BME280;25666;44.350;9.222;2022-08-01T01:18:23;101354.34;;;21.54;100.00
32324;BME280;25666;44.350;9.222;2022-08-01T01:26:50;101362.44;;;21.56;100.00
32324;BME280;25666;44.350;9.222;2022-08-01T01:29:23;101356.34;;;21.61;100.00
32324;BME280;25666;44.350;9.222;2022-08-01T01:32:07;101366.88;;;21.64;100.00
32324;BME280;25666;44.350;9.222;2022-08-01T01:34:37;101364.44;;;21.62;100.00
32324;BME280;25666;44.350;9.222;2022-08-01T01:37:06;101360.78;;;21.58;100.00
32324;BME280;25666;44.350;9.222;2022-08-01T01:39:35;101362.88;;;21.51;100.00
32324;BME280;25666;44.350;9.222;2022-08-01T01:42:04;101358.00;;;21.48;100.00
32324;BME280;25666;44.350;9.222;2022-08-01T01:44:31;101358.41;;;21.43;100.00
32324;BME280;25666;44.350;9.222;2022-08-01T01:46:57;101360.84;;;21.44;100.00
32324;BME280;25666;44.350;9.222;2022-08-01T01:49:27;101358.84;;;21.48;100.00
32324;BME280;25666;44.350;9.222;2022-08-01T01:51:54;101368.09;;;21.52;100.00
32324;BME280;25666;44.350;9.222;2022-08-01T01:54:30;101368.50;;;21.58;100.00
32324;BME280;25666;44.350;9.222;2022-08-01T01:57:00;101361.63;;;21.55;100.00
32324;BME280;25666;44.350;9.222;2022-08-01T01:59:30;101361.22;;;21.57;100.00
32324;BME280;25666;44.350;9.222;2022-08-01T02:01:58;101366.06;;;21.56;100.00
32324;BME280;25666;44.350;9.222;2022-08-01T02:04:27;101367.69;;;21.54;100.00
32324;BME280;25666;44.350;9.222;2022-08-01T02:06:53;101370.94;;;21.56;100.00
32324;BME280;25666;44.350;9.222;2022-08-01T02:09:21;101364.88;;;21.57;100.00
32324;BME280;25666;44.350;9.222;2022-08-01T02:11:48;101360.84;;;21.51;100.00
32324;BME280;25666;44.350;9.222;2022-08-01T02:14:15;101366.53;;;21.44;100.00
32324;BME280;25666;44.350;9.222;2022-08-01T02:16:44;101367.34;;;21.38;100.00
32324;BME280;25666;44.350;9.222;2022-08-01T02:19:12;101367.41;;;21.23;100.00
32324;BME280;25666;44.350;9.222;2022-08-01T02:21:52;101385.22;;;21.20;100.00
32324;BME280;25666;44.350;9.222;2022-08-01T02:24:49;101379.94;;;21.22;100.00
32324;BME280;25666;44.350;9.222;2022-08-01T02:27:20;101385.59;;;21.19;100.00
32324;BME280;25666;44.350;9.222;2022-08-01T02:29:51;101375.50;;;21.14;100.00
32324;BME280;25666;44.350;9.222;2022-08-01T02:32:26;101384.00;;;21.14;100.00
32324;BME280;25666;44.350;9.222;2022-08-01T02:34:53;101380.31;;;21.21;100.00
32324;BME280;25666;44.350;9.222;2022-08-01T02:37:22;101373.47;;;21.15;100.00
32324;BME280;25666;44.350;9.222;2022-08-01T02:39:51;101378.75;;;21.09;100.00
32324;BME280;25666;44.350;9.222;2022-08-01T02:42:19;101378.72;;;21.20;100.00
32324;BME280;25666;44.350;9.222;2022-08-01T02:44:48;101378.31;;;21.18;100.00
32324;BME280;25666;44.350;9.222;2022-08-01T02:47:15;101381.56;;;21.09;100.00
32324;BME280;25666;44.350;9.222;2022-08-01T02:49:45;101379.13;;;21.01;100.00
32324;BME280;25666;44.350;9.222;2022-08-01T02:52:14;101382.78;;;21.01;100.00
32324;BME280;25666;44.350;9.222;2022-08-01T02:54:43;101378.75;;;20.99;100.00
32324;BME280;25666;44.350;9.222;2022-08-01T02:57:10;101383.16;;;20.96;100.00
32324;BME280;25666;44.350;9.222;2022-08-01T02:59:37;101379.91;;;21.08;100.00
32324;BME280;25666;44.350;9.222;2022-08-01T03:02:04;101379.13;;;21.01;100.00
32324;BME280;25666;44.350;9.222;2022-08-01T03:04:33;101379.53;;;21.06;100.00
32324;BME280;25666;44.350;9.222;2022-08-01T03:07:01;101391.22;;;21.08;100.00
32324;BME280;25666;44.350;9.222;2022-08-01T03:09:29;101385.19;;;21.03;100.00
32324;BME280;25666;44.350;9.222;2022-08-01T03:11:59;101383.19;;;21.10;100.00
32324;BME280;25666;44.350;9.222;2022-08-01T03:14:27;101379.13;;;21.01;100.00
32324;BME280;25666;44.350;9.222;2022-08-01T03:16:56;101379.13;;;21.04;100.00
32324;BME280;25666;44.350;9.222;2022-08-01T03:19:24;101381.56;;;21.09;100.00
32324;BME280;25666;44.350;9.222;2022-08-01T03:21:51;101381.97;;;21.04;100.00
32324;BME280;25666;44.350;9.222;2022-08-01T03:24:18;101381.16;;;20.93;100.00
32324;BME280;25666;44.350;9.222;2022-08-01T03:26:45;101386.81;;;20.97;100.00
32324;BME280;25666;44.350;9.222;2022-08-01T03:29:17;101386.00;;;20.93;100.00
32324;BME280;25666;44.350;9.222;2022-08-01T03:31:46;101398.13;;;20.97;100.00
32324;BME280;25666;44.350;9.222;2022-08-01T03:34:13;101394.91;;;20.91;100.00
32324;BME280;25666;44.350;9.222;2022-08-01T03:37:02;101389.25;;;21.02;100.00
32324;BME280;25666;44.350;9.222;2022-08-01T03:39:37;101392.47;;;21.07;100.00
32324;BME280;25666;44.350;9.222;2022-08-01T03:42:12;101386.00;;;21.00;100.00
32324;BME280;25666;44.350;9.222;2022-08-01T03:44:40;101392.84;;;21.02;100.00
32324;BME280;25666;44.350;9.222;2022-08-01T03:47:08;101398.94;;;21.01;100.00
32324;BME280;25666;44.350;9.222;2022-08-01T03:49:41;101395.72;;;20.92;100.00
32324;BME280;25666;44.350;9.222;2022-08-01T03:52:08;101396.91;;;20.91;100.00
32324;BME280;25666;44.350;9.222;2022-08-01T03:54:41;101395.31;;;20.79;100.00
32324;BME280;25666;44.350;9.222;2022-08-01T03:57:09;101392.47;;;20.72;100.00
32324;BME280;25666;44.350;9.222;2022-08-01T03:59:35;101401.38;;;20.67;100.00
32324;BME280;25666;44.350;9.222;2022-08-01T04:02:02;101400.56;;;20.66;100.00
32324;BME280;25666;44.350;9.222;2022-08-01T04:04:29;101410.25;;;20.65;100.00
32324;BME280;25666;44.350;9.222;2022-08-01T04:06:55;101407.44;;;20.69;100.00
32324;BME280;25666;44.350;9.222;2022-08-01T04:09:21;101400.16;;;20.71;100.00
32324;BME280;25666;44.350;9.222;2022-08-01T04:11:47;101411.88;;;20.77;100.00
32324;BME280;25666;44.350;9.222;2022-08-01T04:14:13;101411.47;;;20.68;100.00
32324;BME280;25666;44.350;9.222;2022-08-01T04:16:39;101407.03;;;20.77;100.00
32324;BME280;25666;44.350;9.222;2022-08-01T04:19:04;101413.47;;;20.71;100.00
32324;BME280;25666;44.350;9.222;2022-08-01T04:21:33;101414.72;;;20.84;100.00
32324;BME280;25666;44.350;9.222;2022-08-01T04:24:03;101409.88;;;20.84;100.00
32324;BME280;25666;44.350;9.222;2022-08-01T04:28:57;101412.69;;;20.84;100.00
32324;BME280;25666;44.350;9.222;2022-08-01T04:31:25;101415.09;;;20.97;100.00
32324;BME280;25666;44.350;9.222;2022-08-01T04:33:53;101410.69;;;20.92;100.00
32324;BME280;25666;44.350;9.222;2022-08-01T04:36:23;101415.09;;;20.90;100.00
32324;BME280;25666;44.350;9.222;2022-08-01T04:38:52;101414.72;;;20.88;100.00
32324;BME280;25666;44.350;9.222;2022-08-01T04:41:20;101411.06;;;20.94;100.00
32324;BME280;25666;44.350;9.222;2022-08-01T04:43:47;101424.03;;;20.99;100.00
32324;BME280;25666;44.350;9.222;2022-08-01T04:46:14;101422.41;;;20.94;100.00
32324;BME280;25666;44.350;9.222;2022-08-01T04:48:40;101415.94;;;21.01;100.00
32324;BME280;25666;44.350;9.222;2022-08-01T04:51:16;101422.78;;;21.03;100.00
32324;BME280;25666;44.350;9.222;2022-08-01T04:53:45;101422.78;;;21.03;100.00
32324;BME280;25666;44.350;9.222;2022-08-01T04:56:11;101426.81;;;21.02;100.00
32324;BME280;25666;44.350;9.222;2022-08-01T04:58:41;101422.41;;;21.12;100.00
32324;BME280;25666;44.350;9.222;2022-08-01T05:01:08;101423.22;;;21.19;100.00
32324;BME280;25666;44.350;9.222;2022-08-01T05:03:34;101430.09;;;21.18;100.00
32324;BME280;25666;44.350;9.222;2022-08-01T05:06:00;101426.88;;;21.20;100.00
32324;BME280;25666;44.350;9.222;2022-08-01T05:08:25;101424.81;;;21.24;100.00
32324;BME280;25666;44.350;9.222;2022-08-01T05:10:51;101421.59;;;21.29;100.00
32324;BME280;25666;44.350;9.222;2022-08-01T05:13:18;101423.97;;;21.45;100.00
32324;BME280;25666;44.350;9.222;2022-08-01T05:15:44;101425.16;;;21.61;100.00
32324;BME280;25666;44.350;9.222;2022-08-01T05:18:09;101421.44;;;21.78;100.00
32324;BME280;25666;44.350;9.222;2022-08-01T05:20:35;101425.47;;;21.95;100.00
32324;BME280;25666;44.350;9.222;2022-08-01T05:23:02;101424.19;;;22.03;100.00
32324;BME280;25666;44.350;9.222;2022-08-01T05:25:28;101423.34;;;22.17;100.00
32324;BME280;25666;44.350;9.222;2022-08-01T05:27:53;101427.28;;;22.33;100.00
32324;BME280;25666;44.350;9.222;2022-08-01T05:30:19;101427.56;;;22.50;100.00
32324;BME280;25666;44.350;9.222;2022-08-01T05:32:45;101423.41;;;22.68;100.00
32324;BME280;25666;44.350;9.222;2022-08-01T05:35:10;101437.09;;;22.84;100.00
32324;BME280;25666;44.350;9.222;2022-08-01T05:37:36;101427.16;;;23.06;100.00
32324;BME280;25666;44.350;9.222;2022-08-01T05:40:01;101436.56;;;23.44;100.00
32324;BME280;25666;44.350;9.222;2022-08-01T05:42:27;101439.81;;;23.83;100.00
32324;BME280;25666;44.350;9.222;2022-08-01T05:44:52;101442.38;;;24.35;100.00
32324;BME280;25666;44.350;9.222;2022-08-01T05:47:18;101444.91;;;24.86;100.00
32324;BME280;25666;44.350;9.222;2022-08-01T05:49:44;101448.66;;;25.73;100.00
32324;BME280;25666;44.350;9.222;2022-08-01T05:52:10;101446.19;;;26.34;100.00
32324;BME280;25666;44.350;9.222;2022-08-01T05:54:36;101449.06;;;27.02;100.00
32324;BME280;25666;44.350;9.222;2022-08-01T05:57:02;101452.81;;;28.05;100.00
32324;BME280;25666;44.350;9.222;2022-08-01T05:59:28;101452.47;;;30.32;91.66
32324;BME280;25666;44.350;9.222;2022-08-01T06:01:54;101449.72;;;31.84;79.64
32324;BME280;25666;44.350;9.222;2022-08-01T06:04:20;101459.00;;;32.76;73.48
32324;BME280;25666;44.350;9.222;2022-08-01T06:06:45;101460.00;;;33.53;72.75
32324;BME280;25666;44.350;9.222;2022-08-01T06:09:11;101457.81;;;34.39;65.57
32324;BME280;25666;44.350;9.222;2022-08-01T06:11:36;101456.94;;;35.32;58.41
32324;BME280;25666;44.350;9.222;2022-08-01T06:14:02;101454.38;;;35.40;55.34
32324;BME280;25666;44.350;9.222;2022-08-01T06:16:27;101443.72;;;35.66;54.87
32324;BME280;25666;44.350;9.222;2022-08-01T06:18:53;101439.50;;;34.77;55.28
32324;BME280;25666;44.350;9.222;2022-08-01T06:21:18;101446.81;;;35.42;54.75
32324;BME280;25666;44.350;9.222;2022-08-01T06:23:44;101448.16;;;36.08;50.96
32324;BME280;25666;44.350;9.222;2022-08-01T06:26:09;101450.00;;;37.41;46.44
32324;BME280;25666;44.350;9.222;2022-08-01T06:28:36;101448.56;;;37.74;46.41
32324;BME280;25666;44.350;9.222;2022-08-01T06:31:01;101438.69;;;38.52;42.70
32324;BME280;25666;44.350;9.222;2022-08-01T06:33:27;101443.97;;;38.76;41.67
32324;BME280;25666;44.350;9.222;2022-08-01T06:35:53;101442.13;;;38.51;41.79
32324;BME280;25666;44.350;9.222;2022-08-01T06:38:19;101438.41;;;38.95;40.12
32324;BME280;25666;44.350;9.222;2022-08-01T06:40:44;101438.94;;;39.73;38.57
32324;BME280;25666;44.350;9.222;2022-08-01T06:43:10;101429.69;;;38.78;40.88
32324;BME280;25666;44.350;9.222;2022-08-01T06:45:40;101438.44;;;38.84;39.12
32324;BME280;25666;44.350;9.222;2022-08-01T06:48:06;101436.44;;;39.36;39.14
32324;BME280;25666;44.350;9.222;2022-08-01T06:50:32;101444.44;;;40.29;38.19
32324;BME280;25666;44.350;9.222;2022-08-01T06:52:57;101442.50;;;42.25;34.85
32324;BME280;25666;44.350;9.222;2022-08-01T06:55:23;101435.91;;;42.83;32.92
32324;BME280;25666;44.350;9.222;2022-08-01T06:57:50;101434.44;;;44.49;30.30
32324;BME280;25666;44.350;9.222;2022-08-01T07:00:18;101432.94;;;45.61;29.84
32324;BME280;25666;44.350;9.222;2022-08-01T07:02:46;101428.91;;;45.79;30.50
32324;BME280;25666;44.350;9.222;2022-08-01T07:05:12;101427.00;;;45.97;28.76
32324;BME280;25666;44.350;9.222;2022-08-01T07:07:38;101425.72;;;46.36;29.67
32324;BME280;25666;44.350;9.222;2022-08-01T07:10:04;101433.22;;;46.67;31.38
32324;BME280;25666;44.350;9.222;2022-08-01T07:12:30;101418.09;;;46.78;32.80
32324;BME280;25666;44.350;9.222;2022-08-01T07:14:55;101425.38;;;46.85;33.67
32324;BME280;25666;44.350;9.222;2022-08-01T07:17:21;101427.19;;;47.50;33.20
32324;BME280;25666;44.350;9.222;2022-08-01T07:19:47;101425.16;;;46.60;35.17
32324;BME280;25666;44.350;9.222;2022-08-01T07:22:13;101428.13;;;46.83;32.89
32324;BME280;25666;44.350;9.222;2022-08-01T07:24:39;101423.75;;;47.29;33.13
32324;BME280;25666;44.350;9.222;2022-08-01T07:27:05;101424.31;;;46.14;34.29
32324;BME280;25666;44.350;9.222;2022-08-01T07:29:30;101422.22;;;46.67;34.08
32324;BME280;25666;44.350;9.222;2022-08-01T07:31:57;101422.78;;;47.26;32.42
32324;BME280;25666;44.350;9.222;2022-08-01T07:34:24;101431.34;;;47.55;32.65
32324;BME280;25666;44.350;9.222;2022-08-01T07:36:51;101428.91;;;46.98;33.34
32324;BME280;25666;44.350;9.222;2022-08-01T07:39:16;101428.53;;;46.79;32.85
32324;BME280;25666;44.350;9.222;2022-08-01T07:41:42;101431.63;;;47.04;34.16
32324;BME280;25666;44.350;9.222;2022-08-01T07:44:08;101432.06;;;46.55;33.19
32324;BME280;25666;44.350;9.222;2022-08-01T07:46:33;101438.91;;;46.50;34.80
32324;BME280;25666;44.350;9.222;2022-08-01T07:48:59;101426.53;;;46.36;34.32
32324;BME280;25666;44.350;9.222;2022-08-01T07:51:25;101424.75;;;45.31;35.53
32324;BME280;25666;44.350;9.222;2022-08-01T07:53:50;101429.66;;;45.72;35.70
32324;BME280;25666;44.350;9.222;2022-08-01T07:56:16;101427.66;;;45.67;36.57
32324;BME280;25666;44.350;9.222;2022-08-01T07:58:41;101422.34;;;45.58;36.71
32324;BME280;25666;44.350;9.222;2022-08-01T08:01:07;101434.88;;;46.02;36.14
32324;BME280;25666;44.350;9.222;2022-08-01T08:03:33;101424.81;;;45.46;38.60
32324;BME280;25666;44.350;9.222;2022-08-01T08:05:58;101428.25;;;45.01;39.49
32324;BME280;25666;44.350;9.222;2022-08-01T08:08:24;101433.59;;;44.41;41.22
32324;BME280;25666;44.350;9.222;2022-08-01T08:10:49;101431.88;;;42.86;45.80
32324;BME280;25666;44.350;9.222;2022-08-01T08:13:15;101434.53;;;42.26;50.26
32324;BME280;25666;44.350;9.222;2022-08-01T08:15:41;101436.31;;;38.45;73.99
32324;BME280;25666;44.350;9.222;2022-08-01T08:18:06;101432.88;;;36.64;87.53
32324;BME280;25666;44.350;9.222;2022-08-01T08:20:32;101431.97;;;35.75;93.72
32324;BME280;25666;44.350;9.222;2022-08-01T08:22:58;101438.16;;;34.29;100.00
32324;BME280;25666;44.350;9.222;2022-08-01T08:25:25;101444.44;;;33.74;100.00
32324;BME280;25666;44.350;9.222;2022-08-01T08:27:51;101445.41;;;33.00;100.00
32324;BME280;25666;44.350;9.222;2022-08-01T08:30:17;101441.03;;;32.30;100.00
32324;BME280;25666;44.350;9.222;2022-08-01T08:32:43;101442.69;;;31.95;100.00
32324;BME280;25666;44.350;9.222;2022-08-01T08:35:08;101443.44;;;31.22;100.00
32324;BME280;25666;44.350;9.222;2022-08-01T08:37:35;101435.72;;;31.01;100.00
32324;BME280;25666;44.350;9.222;2022-08-01T08:40:02;101443.22;;;30.68;100.00
32324;BME280;25666;44.350;9.222;2022-08-01T08:42:27;101455.19;;;30.57;100.00
32324;BME280;25666;44.350;9.222;2022-08-01T08:44:53;101446.38;;;30.61;100.00
32324;BME280;25666;44.350;9.222;2022-08-01T08:47:22;101440.38;;;30.15;100.00
32324;BME280;25666;44.350;9.222;2022-08-01T08:49:51;101448.69;;;30.13;100.00
32324;BME280;25666;44.350;9.222;2022-08-01T08:52:19;101450.84;;;30.31;100.00
32324;BME280;25666;44.350;9.222;2022-08-01T08:54:46;101448.88;;;30.19;100.00
32324;BME280;25666;44.350;9.222;2022-08-01T08:57:14;101448.94;;;30.06;100.00
32324;BME280;25666;44.350;9.222;2022-08-01T08:59:40;101457.88;;;30.08;100.00
32324;BME280;25666;44.350;9.222;2022-08-01T09:02:07;101451.00;;;30.06;100.00
32324;BME280;25666;44.350;9.222;2022-08-01T09:04:35;101456.94;;;30.11;100.00
32324;BME280;25666;44.350;9.222;2022-08-01T09:07:03;101456.81;;;30.15;100.00
32324;BME280;25666;44.350;9.222;2022-08-01T09:09:28;101451.47;;;30.04;100.00
32324;BME280;25666;44.350;9.222;2022-08-01T09:11:54;101457.94;;;30.17;100.00
32324;BME280;25666;44.350;9.222;2022-08-01T09:14:21;101463.13;;;30.32;100.00
32324;BME280;25666;44.350;9.222;2022-08-01T09:17:04;101458.66;;;30.31;100.00
32324;BME280;25666;44.350;9.222;2022-08-01T09:19:34;101463.41;;;30.24;100.00
32324;BME280;25666;44.350;9.222;2022-08-01T09:22:02;101458.47;;;30.25;100.00
32324;BME280;25666;44.350;9.222;2022-08-01T09:24:30;101464.81;;;30.20;100.00
32324;BME280;25666;44.350;9.222;2022-08-01T09:26:57;101467.97;;;30.13;100.00
32324;BME280;25666;44.350;9.222;2022-08-01T09:29:26;101465.91;;;30.13;100.00
32324;BME280;25666;44.350;9.222;2022-08-01T09:31:52;101463.53;;;30.21;100.00
32324;BME280;25666;44.350;9.222;2022-08-01T09:34:26;101459.44;;;30.00;100.00
32324;BME280;25666;44.350;9.222;2022-08-01T09:36:56;101466.16;;;30.06;100.00
32324;BME280;25666;44.350;9.222;2022-08-01T09:39:24;101471.63;;;29.92;100.00
32324;BME280;25666;44.350;9.222;2022-08-01T09:41:50;101465.28;;;30.18;100.00
32324;BME280;25666;44.350;9.222;2022-08-01T09:44:17;101476.66;;;30.00;100.00
32324;BME280;25666;44.350;9.222;2022-08-01T09:46:53;101484.03;;;29.54;100.00
32324;BME280;25666;44.350;9.222;2022-08-01T09:49:32;101472.69;;;29.51;100.00
32324;BME280;25666;44.350;9.222;2022-08-01T09:54:37;101475.69;;;29.47;100.00
32324;BME280;25666;44.350;9.222;2022-08-01T09:57:15;101473.88;;;29.41;100.00
32324;BME280;25666;44.350;9.222;2022-08-01T09:59:45;101473.78;;;29.66;100.00
32324;BME280;25666;44.350;9.222;2022-08-01T10:02:12;101467.53;;;29.80;100.00
32324;BME280;25666;44.350;9.222;2022-08-01T10:04:50;101473.03;;;29.87;100.00
32324;BME280;25666;44.350;9.222;2022-08-01T10:07:18;101464.38;;;29.65;100.00
32324;BME280;25666;44.350;9.222;2022-08-01T10:09:45;101471.25;;;29.68;100.00
32324;BME280;25666;44.350;9.222;2022-08-01T10:12:13;101468.78;;;29.79;100.00
32324;BME280;25666;44.350;9.222;2022-08-01T10:14:39;101467.50;;;29.93;100.00
32324;BME280;25666;44.350;9.222;2022-08-01T10:17:08;101472.91;;;29.91;100.00
32324;BME280;25666;44.350;9.222;2022-08-01T10:19:35;101469.34;;;29.87;100.00
32324;BME280;25666;44.350;9.222;2022-08-01T10:22:05;101468.63;;;30.17;100.00
32324;BME280;25666;44.350;9.222;2022-08-01T10:24:36;101466.63;;;30.05;100.00
32324;BME280;25666;44.350;9.222;2022-08-01T10:27:04;101465.03;;;30.04;100.00
32324;BME280;25666;44.350;9.222;2022-08-01T10:29:57;101466.56;;;29.96;100.00
32324;BME280;25666;44.350;9.222;2022-08-01T10:32:31;101472.63;;;29.63;100.00
32324;BME280;25666;44.350;9.222;2022-08-01T10:34:58;101464.91;;;29.73;100.00
32324;BME280;25666;44.350;9.222;2022-08-01T10:37:24;101464.88;;;29.86;100.00
32324;BME280;25666;44.350;9.222;2022-08-01T10:39:51;101460.16;;;29.79;100.00
32324;BME280;25666;44.350;9.222;2022-08-01T10:42:17;101455.50;;;29.51;100.00
32324;BME280;25666;44.350;9.222;2022-08-01T10:44:43;101457.44;;;29.54;100.00
32324;BME280;25666;44.350;9.222;2022-08-01T10:47:13;101460.56;;;29.34;100.00
32324;BME280;25666;44.350;9.222;2022-08-01T10:49:58;101456.50;;;29.57;100.00
32324;BME280;25666;44.350;9.222;2022-08-01T10:52:26;101461.44;;;29.56;100.00
32324;BME280;25666;44.350;9.222;2022-08-01T10:55:07;101451.00;;;29.50;100.00
32324;BME280;25666;44.350;9.222;2022-08-01T10:57:46;101458.81;;;29.49;100.00
32324;BME280;25666;44.350;9.222;2022-08-01T11:00:19;101459.88;;;29.17;100.00
32324;BME280;25666;44.350;9.222;2022-08-01T11:03:02;101450.75;;;28.97;100.00
32324;BME280;25666;44.350;9.222;2022-08-01T11:05:33;101446.97;;;28.88;100.00
32324;BME280;25666;44.350;9.222;2022-08-01T11:08:27;101451.69;;;28.94;100.00
32324;BME280;25666;44.350;9.222;2022-08-01T11:11:00;101448.34;;;28.96;100.00
32324;BME280;25666;44.350;9.222;2022-08-01T11:16:30;101446.59;;;28.98;100.00
32324;BME280;25666;44.350;9.222;2022-08-01T11:18:56;101438.94;;;28.83;100.00
32324;BME280;25666;44.350;9.222;2022-08-01T11:21:22;101430.22;;;28.86;100.00
32324;BME280;25666;44.350;9.222;2022-08-01T11:23:52;101435.16;;;28.98;100.00
32324;BME280;25666;44.350;9.222;2022-08-01T11:26:19;101430.00;;;28.93;100.00
32324;BME280;25666;44.350;9.222;2022-08-01T11:29:10;101435.16;;;28.98;100.00
32324;BME280;25666;44.350;9.222;2022-08-01T11:31:32;101428.94;;;29.12;100.00
32324;BME280;25666;44.350;9.222;2022-08-01T11:33:58;101427.31;;;29.11;100.00
32324;BME280;25666;44.350;9.222;2022-08-01T11:36:24;101430.81;;;28.94;100.00
32324;BME280;25666;44.350;9.222;2022-08-01T11:41:26;101427.81;;;28.97;100.00
32324;BME280;25666;44.350;9.222;2022-08-01T11:46:59;101420.94;;;28.95;100.00
32324;BME280;25666;44.350;9.222;2022-08-01T11:52:25;101421.38;;;29.06;100.00
32324;BME280;25666;44.350;9.222;2022-08-01T11:54:55;101409.00;;;29.09;100.00
32324;BME280;25666;44.350;9.222;2022-08-01T11:57:27;101407.38;;;29.08;100.00
32324;BME280;25666;44.350;9.222;2022-08-01T11:59:57;101402.09;;;29.19;100.00
32324;BME280;25666;44.350;9.222;2022-08-01T12:02:31;101402.53;;;29.30;100.00
32324;BME280;25666;44.350;9.222;2022-08-01T12:04:58;101392.13;;;29.11;100.00
32324;BME280;25666;44.350;9.222;2022-08-01T12:07:26;101394.34;;;28.94;100.00
32324;BME280;25666;44.350;9.222;2022-08-01T12:10:10;101399.59;;;28.96;100.00
32324;BME280;25666;44.350;9.222;2022-08-01T12:12:41;101392.16;;;28.98;100.00
32324;BME280;25666;44.350;9.222;2022-08-01T12:15:08;101398.78;;;29.08;100.00
32324;BME280;25666;44.350;9.222;2022-08-01T12:17:36;101386.38;;;29.11;100.00
32324;BME280;25666;44.350;9.222;2022-08-01T12:20:08;101385.56;;;29.10;100.00
32324;BME280;25666;44.350;9.222;2022-08-01T12:22:34;101388.31;;;29.14;100.00
32324;BME280;25666;44.350;9.222;2022-08-01T12:25:11;101390.41;;;29.01;100.00
32324;BME280;25666;44.350;9.222;2022-08-01T12:27:38;101386.59;;;29.16;100.00
32324;BME280;25666;44.350;9.222;2022-08-01T12:30:07;101387.44;;;29.04;100.00
32324;BME280;25666;44.350;9.222;2022-08-01T12:32:35;101384.81;;;29.10;100.00
32324;BME280;25666;44.350;9.222;2022-08-01T12:35:03;101384.00;;;29.09;100.00
32324;BME280;25666;44.350;9.222;2022-08-01T12:37:29;101382.81;;;29.19;100.00
32324;BME280;25666;44.350;9.222;2022-08-01T12:39:56;101388.13;;;29.08;100.00
32324;BME280;25666;44.350;9.222;2022-08-01T12:42:22;101378.78;;;29.17;100.00
32324;BME280;25666;44.350;9.222;2022-08-01T12:44:50;101386.66;;;29.04;100.00
32324;BME280;25666;44.350;9.222;2022-08-01T12:47:18;101377.13;;;29.07;100.00
32324;BME280;25666;44.350;9.222;2022-08-01T12:49:44;101381.53;;;29.20;100.00
32324;BME280;25666;44.350;9.222;2022-08-01T12:52:11;101378.91;;;29.26;100.00
32324;BME280;25666;44.350;9.222;2022-08-01T12:55:10;101376.84;;;29.27;100.00
32324;BME280;25666;44.350;9.222;2022-08-01T12:57:38;101378.91;;;29.13;100.00
32324;BME280;25666;44.350;9.222;2022-08-01T13:00:08;101367.91;;;29.25;100.00
32324;BME280;25666;44.350;9.222;2022-08-01T13:02:34;101372.84;;;29.24;100.00
32324;BME280;25666;44.350;9.222;2022-08-01T13:05:01;101374.88;;;29.23;100.00
32324;BME280;25666;44.350;9.222;2022-08-01T13:07:48;101363.44;;;29.11;100.00
32324;BME280;25666;44.350;9.222;2022-08-01T13:10:24;101369.31;;;29.07;100.00
32324;BME280;25666;44.350;9.222;2022-08-01T13:12:54;101358.16;;;29.22;100.00
32324;BME280;25666;44.350;9.222;2022-08-01T13:15:32;101358.97;;;29.22;100.00